Airfield :







YOU CAN JOIN US ON...

 
LOGIN :

Register | Disclaimer

   EN    FR    IT 

 









Legend :    VFR   Marginal VFR   IFR   Intensive IFR   Very Intensive IFR
Visi :
Ceiling :
>= 8 km
>= 3000ft
5 to 8 km
1000 to 3000 ft
1500m to 5 km
500 to 1000 ft
800 to 1500m
200 to 500 ft
< 800m
< 200 ft
Symbols :   Thunderstorms  Fog  Heavy snow  Heavy precipitations  Wind > 20 kt






- Airport Elevation : 335 ft
- IATA code : BTV


KBTV - Burlington International

CURRENT METAR :
  • 281454Z 18009G16KT 10SM FEW045 SCT120 BKN140 26/17 A3008 RMK AO2 SLP183 T02610167 58013

EXPIRED METARs :
  • 281354Z 19011KT 10SM FEW045 BKN080 BKN120 25/17 A3009 RMK AO2 SLP188 ACSL ALQDS T02500172
  • 281254Z 20011G17KT 10SM SCT070 BKN110 24/17 A3011 RMK AO2 SLP194 ACSL ALQDS T02390172

TAF KBTV
Valid from the 28 at 12:00 until the 29 at 12:00 UTC


281120Z 2812/2912 18013G20KT P6SM FEW050 BKN150
FM290000 18013G20KT P6SM BKN050
FM290400 18013G23KT P6SM BKN030
FM290600 18015G25KT 5SM BR BKN025
KZBW FIR / North America



MET'MAP, your aeronautical weather chart ! - Copyright ORBIFLY December 2007 - Disclaimer

ORBIFLY MET'MAP TEAM :

Programming & Development : Alexandra Zaïnal
Concept & original design : Baudouin d'Aumeries
Assistance for programming : Marc-Olivier Méhu
Technical & hardware support : Manuel Goepfert

Contact : metmap@orbifly.com




SOURCES & CREDITS :

   NOAA